sensor_id;sensor_type;location;lat;lon;timestamp;temperature;humidity
15815;DHT22;8008;50.024;8.172;2024-03-08T04:02:23;5.20;90.70
15815;DHT22;8008;50.024;8.172;2024-03-08T04:04:52;5.10;90.90
15815;DHT22;8008;50.024;8.172;2024-03-08T04:07:21;5.20;91.00
15815;DHT22;8008;50.024;8.172;2024-03-08T04:09:49;5.20;90.90
15815;DHT22;8008;50.024;8.172;2024-03-08T04:12:17;5.20;91.10
15815;DHT22;8008;50.024;8.172;2024-03-08T04:14:45;5.20;91.10
15815;DHT22;8008;50.024;8.172;2024-03-08T04:17:13;5.20;91.10
15815;DHT22;8008;50.024;8.172;2024-03-08T04:19:42;5.20;91.10
15815;DHT22;8008;50.024;8.172;2024-03-08T04:22:10;5.20;91.20
15815;DHT22;8008;50.024;8.172;2024-03-08T04:24:38;5.20;91.20
15815;DHT22;8008;50.024;8.172;2024-03-08T04:27:06;5.20;91.20
15815;DHT22;8008;50.024;8.172;2024-03-08T04:29:36;5.20;91.20
15815;DHT22;8008;50.024;8.172;2024-03-08T04:32:05;5.20;91.30
15815;DHT22;8008;50.024;8.172;2024-03-08T04:34:33;5.20;91.20
15815;DHT22;8008;50.024;8.172;2024-03-08T04:37:03;5.10;91.30
15815;DHT22;8008;50.024;8.172;2024-03-08T04:39:31;5.20;91.40
15815;DHT22;8008;50.024;8.172;2024-03-08T04:42:01;5.10;91.30
15815;DHT22;8008;50.024;8.172;2024-03-08T04:44:32;5.10;91.60
15815;DHT22;8008;50.024;8.172;2024-03-08T04:47:00;5.00;91.70
15815;DHT22;8008;50.024;8.172;2024-03-08T04:49:28;5.00;91.80
15815;DHT22;8008;50.024;8.172;2024-03-08T04:51:56;5.00;91.80
15815;DHT22;8008;50.024;8.172;2024-03-08T04:54:25;5.00;92.00
15815;DHT22;8008;50.024;8.172;2024-03-08T04:56:53;4.90;92.00
15815;DHT22;8008;50.024;8.172;2024-03-08T04:59:21;4.90;92.00
15815;DHT22;8008;50.024;8.172;2024-03-08T05:01:49;4.90;92.20
15815;DHT22;8008;50.024;8.172;2024-03-08T05:04:18;4.90;92.40
15815;DHT22;8008;50.024;8.172;2024-03-08T05:06:45;4.80;92.40
15815;DHT22;8008;50.024;8.172;2024-03-08T05:09:13;4.70;92.50
15815;DHT22;8008;50.024;8.172;2024-03-08T05:11:44;4.80;92.60
15815;DHT22;8008;50.024;8.172;2024-03-08T05:14:14;4.80;92.40
15815;DHT22;8008;50.024;8.172;2024-03-08T05:16:43;4.80;92.60
15815;DHT22;8008;50.024;8.172;2024-03-08T05:19:15;4.90;92.60
15815;DHT22;8008;50.024;8.172;2024-03-08T05:21:44;4.80;92.60
15815;DHT22;8008;50.024;8.172;2024-03-08T05:24:12;4.80;92.60
15815;DHT22;8008;50.024;8.172;2024-03-08T05:26:42;4.80;92.60
15815;DHT22;8008;50.024;8.172;2024-03-08T05:29:11;4.80;92.60
15815;DHT22;8008;50.024;8.172;2024-03-08T05:31:46;4.90;92.70
15815;DHT22;8008;50.024;8.172;2024-03-08T05:34:14;4.90;92.80
15815;DHT22;8008;50.024;8.172;2024-03-08T05:36:42;4.80;92.90
15815;DHT22;8008;50.024;8.172;2024-03-08T05:39:12;4.90;92.80
15815;DHT22;8008;50.024;8.172;2024-03-08T05:41:40;4.90;92.80
15815;DHT22;8008;50.024;8.172;2024-03-08T05:44:10;4.90;92.80
15815;DHT22;8008;50.024;8.172;2024-03-08T05:46:39;4.80;92.80
15815;DHT22;8008;50.024;8.172;2024-03-08T05:49:07;4.80;93.00
15815;DHT22;8008;50.024;8.172;2024-03-08T05:51:38;4.80;93.10
15815;DHT22;8008;50.024;8.172;2024-03-08T05:54:07;4.70;93.20
15815;DHT22;8008;50.024;8.172;2024-03-08T05:56:38;4.80;93.20
15815;DHT22;8008;50.024;8.172;2024-03-08T05:59:07;4.70;93.10
15815;DHT22;8008;50.024;8.172;2024-03-08T06:01:37;4.60;93.60
15815;DHT22;8008;50.024;8.172;2024-03-08T06:04:07;4.60;93.80
15815;DHT22;8008;50.024;8.172;2024-03-08T06:06:36;4.60;93.90
15815;DHT22;8008;50.024;8.172;2024-03-08T06:09:05;4.70;93.80
15815;DHT22;8008;50.024;8.172;2024-03-08T06:11:38;4.60;93.90
15815;DHT22;8008;50.024;8.172;2024-03-08T06:14:05;4.60;93.90
15815;DHT22;8008;50.024;8.172;2024-03-08T06:16:33;4.70;94.10
15815;DHT22;8008;50.024;8.172;2024-03-08T06:19:04;4.60;94.00
15815;DHT22;8008;50.024;8.172;2024-03-08T06:21:32;4.60;94.30
15815;DHT22;8008;50.024;8.172;2024-03-08T06:24:00;4.60;94.30
15815;DHT22;8008;50.024;8.172;2024-03-08T06:26:28;4.60;94.30
15815;DHT22;8008;50.024;8.172;2024-03-08T06:28:58;4.70;94.30
15815;DHT22;8008;50.024;8.172;2024-03-08T06:31:26;4.70;94.50
15815;DHT22;8008;50.024;8.172;2024-03-08T06:33:54;4.70;94.30
15815;DHT22;8008;50.024;8.172;2024-03-08T06:36:24;4.70;94.50
15815;DHT22;8008;50.024;8.172;2024-03-08T06:38:52;4.70;94.60
15815;DHT22;8008;50.024;8.172;2024-03-08T06:41:21;4.70;94.70
15815;DHT22;8008;50.024;8.172;2024-03-08T06:43:49;4.70;94.70
15815;DHT22;8008;50.024;8.172;2024-03-08T06:46:18;4.70;94.80
15815;DHT22;8008;50.024;8.172;2024-03-08T06:48:48;4.70;94.80
15815;DHT22;8008;50.024;8.172;2024-03-08T06:51:17;4.70;94.90
15815;DHT22;8008;50.024;8.172;2024-03-08T06:53:46;4.70;94.90
15815;DHT22;8008;50.024;8.172;2024-03-08T06:56:15;4.70;94.90
15815;DHT22;8008;50.024;8.172;2024-03-08T06:58:43;4.80;95.20
15815;DHT22;8008;50.024;8.172;2024-03-08T07:01:13;4.90;95.00
15815;DHT22;8008;50.024;8.172;2024-03-08T07:03:41;5.00;95.00
15815;DHT22;8008;50.024;8.172;2024-03-08T07:06:11;5.00;95.00
15815;DHT22;8008;50.024;8.172;2024-03-08T07:08:42;5.00;95.10
15815;DHT22;8008;50.024;8.172;2024-03-08T07:11:14;5.10;95.10
15815;DHT22;8008;50.024;8.172;2024-03-08T07:13:44;5.10;94.90
15815;DHT22;8008;50.024;8.172;2024-03-08T07:16:12;5.10;94.80
15815;DHT22;8008;50.024;8.172;2024-03-08T07:18:40;5.20;94.60
15815;DHT22;8008;50.024;8.172;2024-03-08T07:21:10;5.20;94.70
15815;DHT22;8008;50.024;8.172;2024-03-08T07:23:38;5.20;94.60
15815;DHT22;8008;50.024;8.172;2024-03-08T07:26:31;5.20;94.60
15815;DHT22;8008;50.024;8.172;2024-03-08T07:28:59;5.30;94.60
15815;DHT22;8008;50.024;8.172;2024-03-08T07:31:27;5.30;94.30
15815;DHT22;8008;50.024;8.172;2024-03-08T07:34:04;5.40;94.20
15815;DHT22;8008;50.024;8.172;2024-03-08T07:36:34;5.50;94.10
15815;DHT22;8008;50.024;8.172;2024-03-08T07:39:02;5.40;94.20
15815;DHT22;8008;50.024;8.172;2024-03-08T07:41:36;5.40;93.90
15815;DHT22;8008;50.024;8.172;2024-03-08T07:44:04;5.40;94.00
15815;DHT22;8008;50.024;8.172;2024-03-08T07:46:32;5.40;94.00
15815;DHT22;8008;50.024;8.172;2024-03-08T07:49:01;5.50;94.10
15815;DHT22;8008;50.024;8.172;2024-03-08T07:51:29;5.60;93.70
15815;DHT22;8008;50.024;8.172;2024-03-08T07:53:58;5.50;93.60
15815;DHT22;8008;50.024;8.172;2024-03-08T07:56:27;5.50;93.60
15815;DHT22;8008;50.024;8.172;2024-03-08T07:58:56;5.50;93.80
15815;DHT22;8008;50.024;8.172;2024-03-08T08:01:24;5.60;93.60
15815;DHT22;8008;50.024;8.172;2024-03-08T08:03:52;5.60;93.70
15815;DHT22;8008;50.024;8.172;2024-03-08T08:06:20;5.60;93.70
15815;DHT22;8008;50.024;8.172;2024-03-08T08:08:48;5.70;93.60
15815;DHT22;8008;50.024;8.172;2024-03-08T08:11:16;5.70;93.40
15815;DHT22;8008;50.024;8.172;2024-03-08T08:13:44;5.80;93.50
15815;DHT22;8008;50.024;8.172;2024-03-08T08:16:13;5.70;93.40
15815;DHT22;8008;50.024;8.172;2024-03-08T08:18:41;5.80;93.40
15815;DHT22;8008;50.024;8.172;2024-03-08T08:21:10;5.90;93.30
15815;DHT22;8008;50.024;8.172;2024-03-08T08:23:38;5.90;93.20
15815;DHT22;8008;50.024;8.172;2024-03-08T08:26:07;5.90;93.20
15815;DHT22;8008;50.024;8.172;2024-03-08T08:28:34;5.90;93.10
15815;DHT22;8008;50.024;8.172;2024-03-08T08:31:03;5.90;93.10
15815;DHT22;8008;50.024;8.172;2024-03-08T08:33:32;6.00;93.30
15815;DHT22;8008;50.024;8.172;2024-03-08T08:36:02;6.00;93.50
15815;DHT22;8008;50.024;8.172;2024-03-08T08:38:30;6.10;93.30
15815;DHT22;8008;50.024;8.172;2024-03-08T08:40:59;6.10;92.90
15815;DHT22;8008;50.024;8.172;2024-03-08T08:43:29;6.10;93.10
15815;DHT22;8008;50.024;8.172;2024-03-08T08:45:57;6.20;92.90
15815;DHT22;8008;50.024;8.172;2024-03-08T08:48:25;6.20;93.20
15815;DHT22;8008;50.024;8.172;2024-03-08T08:50:56;6.30;92.90
15815;DHT22;8008;50.024;8.172;2024-03-08T08:53:24;6.40;93.00
15815;DHT22;8008;50.024;8.172;2024-03-08T08:55:52;6.50;92.40
15815;DHT22;8008;50.024;8.172;2024-03-08T08:58:20;6.40;92.30
15815;DHT22;8008;50.024;8.172;2024-03-08T09:00:49;6.50;92.60
15815;DHT22;8008;50.024;8.172;2024-03-08T09:03:19;6.50;92.30
15815;DHT22;8008;50.024;8.172;2024-03-08T09:05:47;6.60;92.50
15815;DHT22;8008;50.024;8.172;2024-03-08T09:08:16;6.70;92.20
15815;DHT22;8008;50.024;8.172;2024-03-08T09:10:44;6.80;92.40
15815;DHT22;8008;50.024;8.172;2024-03-08T09:13:17;6.90;91.80
15815;DHT22;8008;50.024;8.172;2024-03-08T09:15:57;7.00;92.00
15815;DHT22;8008;50.024;8.172;2024-03-08T09:18:25;7.10;91.90
15815;DHT22;8008;50.024;8.172;2024-03-08T09:20:53;7.20;91.60
15815;DHT22;8008;50.024;8.172;2024-03-08T09:23:23;7.20;91.10
15815;DHT22;8008;50.024;8.172;2024-03-08T09:25:53;7.20;90.90
15815;DHT22;8008;50.024;8.172;2024-03-08T09:28:21;7.20;91.10
15815;DHT22;8008;50.024;8.172;2024-03-08T09:30:49;7.30;91.30
15815;DHT22;8008;50.024;8.172;2024-03-08T09:33:26;7.40;91.50
15815;DHT22;8008;50.024;8.172;2024-03-08T09:35:55;7.70;91.30
15815;DHT22;8008;50.024;8.172;2024-03-08T09:38:27;7.90;91.00
15815;DHT22;8008;50.024;8.172;2024-03-08T09:40:56;8.00;90.40
15815;DHT22;8008;50.024;8.172;2024-03-08T09:43:25;8.10;89.60
15815;DHT22;8008;50.024;8.172;2024-03-08T09:45:53;8.20;89.70
15815;DHT22;8008;50.024;8.172;2024-03-08T09:48:23;8.30;89.10
15815;DHT22;8008;50.024;8.172;2024-03-08T09:50:51;8.40;88.80
15815;DHT22;8008;50.024;8.172;2024-03-08T09:53:19;8.60;88.80
15815;DHT22;8008;50.024;8.172;2024-03-08T09:55:50;8.70;88.10
15815;DHT22;8008;50.024;8.172;2024-03-08T09:58:18;8.70;87.60
15815;DHT22;8008;50.024;8.172;2024-03-08T10:01:04;8.80;88.10
15815;DHT22;8008;50.024;8.172;2024-03-08T10:03:33;9.00;87.90
15815;DHT22;8008;50.024;8.172;2024-03-08T10:06:01;9.00;87.50
15815;DHT22;8008;50.024;8.172;2024-03-08T10:08:30;9.00;87.10
15815;DHT22;8008;50.024;8.172;2024-03-08T10:10:59;9.10;86.90
15815;DHT22;8008;50.024;8.172;2024-03-08T10:13:29;9.30;86.30
15815;DHT22;8008;50.024;8.172;2024-03-08T10:15:58;9.30;85.80
15815;DHT22;8008;50.024;8.172;2024-03-08T10:18:26;9.40;85.80
15815;DHT22;8008;50.024;8.172;2024-03-08T10:21:05;9.40;85.40
15815;DHT22;8008;50.024;8.172;2024-03-08T10:23:33;9.50;85.80
15815;DHT22;8008;50.024;8.172;2024-03-08T10:26:13;9.50;85.10
15815;DHT22;8008;50.024;8.172;2024-03-08T10:28:42;9.60;84.60
15815;DHT22;8008;50.024;8.172;2024-03-08T10:31:11;9.60;84.20
15815;DHT22;8008;50.024;8.172;2024-03-08T10:33:41;9.60;84.00
15815;DHT22;8008;50.024;8.172;2024-03-08T10:36:10;9.60;84.00
15815;DHT22;8008;50.024;8.172;2024-03-08T10:38:40;9.70;84.10
15815;DHT22;8008;50.024;8.172;2024-03-08T10:41:09;9.80;83.90
15815;DHT22;8008;50.024;8.172;2024-03-08T10:43:59;9.90;83.90
15815;DHT22;8008;50.024;8.172;2024-03-08T10:46:43;10.00;82.00
15815;DHT22;8008;50.024;8.172;2024-03-08T10:49:17;10.00;81.70
15815;DHT22;8008;50.024;8.172;2024-03-08T10:51:46;10.00;81.50
15815;DHT22;8008;50.024;8.172;2024-03-08T10:54:19;10.10;80.30
15815;DHT22;8008;50.024;8.172;2024-03-08T10:56:48;10.20;80.20
15815;DHT22;8008;50.024;8.172;2024-03-08T10:59:19;10.20;79.90
15815;DHT22;8008;50.024;8.172;2024-03-08T11:01:47;10.30;79.30
15815;DHT22;8008;50.024;8.172;2024-03-08T11:04:16;10.30;78.20
15815;DHT22;8008;50.024;8.172;2024-03-08T11:06:50;10.40;78.10
15815;DHT22;8008;50.024;8.172;2024-03-08T11:09:30;10.40;78.40
15815;DHT22;8008;50.024;8.172;2024-03-08T11:12:23;10.60;77.90
15815;DHT22;8008;50.024;8.172;2024-03-08T11:14:55;10.70;78.00
15815;DHT22;8008;50.024;8.172;2024-03-08T11:17:40;10.70;76.90
15815;DHT22;8008;50.024;8.172;2024-03-08T11:20:10;10.70;76.50
15815;DHT22;8008;50.024;8.172;2024-03-08T11:22:48;10.70;75.90
15815;DHT22;8008;50.024;8.172;2024-03-08T11:25:31;10.60;75.80
15815;DHT22;8008;50.024;8.172;2024-03-08T11:28:12;10.60;76.20
15815;DHT22;8008;50.024;8.172;2024-03-08T11:33:37;10.70;77.10
15815;DHT22;8008;50.024;8.172;2024-03-08T11:36:11;10.80;76.60
15815;DHT22;8008;50.024;8.172;2024-03-08T11:38:43;10.90;76.70
15815;DHT22;8008;50.024;8.172;2024-03-08T11:41:13;11.00;76.00
15815;DHT22;8008;50.024;8.172;2024-03-08T11:43:45;11.10;76.30
15815;DHT22;8008;50.024;8.172;2024-03-08T11:46:16;11.10;74.80
15815;DHT22;8008;50.024;8.172;2024-03-08T11:48:47;11.10;74.80
15815;DHT22;8008;50.024;8.172;2024-03-08T11:51:15;11.00;74.30
15815;DHT22;8008;50.024;8.172;2024-03-08T11:53:45;10.90;74.40
15815;DHT22;8008;50.024;8.172;2024-03-08T11:56:14;10.80;74.70
15815;DHT22;8008;50.024;8.172;2024-03-08T11:58:52;10.80;75.50
15815;DHT22;8008;50.024;8.172;2024-03-08T12:01:22;10.80;76.20
15815;DHT22;8008;50.024;8.172;2024-03-08T12:03:53;10.80;76.10
15815;DHT22;8008;50.024;8.172;2024-03-08T12:06:22;10.90;75.90
15815;DHT22;8008;50.024;8.172;2024-03-08T12:08:50;10.90;75.20
15815;DHT22;8008;50.024;8.172;2024-03-08T12:11:18;10.90;75.00
15815;DHT22;8008;50.024;8.172;2024-03-08T12:13:49;10.90;75.30
15815;DHT22;8008;50.024;8.172;2024-03-08T12:16:19;10.90;74.60
15815;DHT22;8008;50.024;8.172;2024-03-08T12:18:51;10.90;75.10
15815;DHT22;8008;50.024;8.172;2024-03-08T12:21:20;11.00;75.90
15815;DHT22;8008;50.024;8.172;2024-03-08T12:24:02;11.00;75.90
15815;DHT22;8008;50.024;8.172;2024-03-08T12:26:30;11.00;74.70
15815;DHT22;8008;50.024;8.172;2024-03-08T12:29:14;11.00;75.00
15815;DHT22;8008;50.024;8.172;2024-03-08T12:31:43;11.00;75.20
15815;DHT22;8008;50.024;8.172;2024-03-08T12:34:13;11.00;75.40
15815;DHT22;8008;50.024;8.172;2024-03-08T12:36:46;11.00;75.50
15815;DHT22;8008;50.024;8.172;2024-03-08T12:39:22;10.90;75.00
15815;DHT22;8008;50.024;8.172;2024-03-08T12:41:54;10.90;75.20
15815;DHT22;8008;50.024;8.172;2024-03-08T12:44:24;10.90;75.30
15815;DHT22;8008;50.024;8.172;2024-03-08T12:46:53;11.00;75.20
15815;DHT22;8008;50.024;8.172;2024-03-08T12:49:22;11.00;75.00
15815;DHT22;8008;50.024;8.172;2024-03-08T12:51:51;11.00;74.50
15815;DHT22;8008;50.024;8.172;2024-03-08T12:54:20;11.00;75.20
15815;DHT22;8008;50.024;8.172;2024-03-08T12:56:50;11.10;75.30
15815;DHT22;8008;50.024;8.172;2024-03-08T12:59:20;11.10;76.10
15815;DHT22;8008;50.024;8.172;2024-03-08T13:01:50;11.10;75.40
15815;DHT22;8008;50.024;8.172;2024-03-08T13:04:20;11.10;76.20
15815;DHT22;8008;50.024;8.172;2024-03-08T13:06:50;11.10;75.80
15815;DHT22;8008;50.024;8.172;2024-03-08T13:09:21;11.10;76.00
15815;DHT22;8008;50.024;8.172;2024-03-08T13:11:50;11.20;76.00
15815;DHT22;8008;50.024;8.172;2024-03-08T13:14:20;11.20;76.70
15815;DHT22;8008;50.024;8.172;2024-03-08T13:16:48;11.30;75.80
15815;DHT22;8008;50.024;8.172;2024-03-08T13:19:18;11.30;76.30
15815;DHT22;8008;50.024;8.172;2024-03-08T13:21:49;11.40;76.10
15815;DHT22;8008;50.024;8.172;2024-03-08T13:24:17;11.40;75.60
15815;DHT22;8008;50.024;8.172;2024-03-08T13:26:47;11.40;76.00
15815;DHT22;8008;50.024;8.172;2024-03-08T13:29:16;11.50;76.10
15815;DHT22;8008;50.024;8.172;2024-03-08T13:31:45;11.60;75.80
15815;DHT22;8008;50.024;8.172;2024-03-08T13:34:16;11.60;75.00
15815;DHT22;8008;50.024;8.172;2024-03-08T13:36:44;11.60;75.30
15815;DHT22;8008;50.024;8.172;2024-03-08T13:39:14;11.60;75.70
15815;DHT22;8008;50.024;8.172;2024-03-08T13:41:42;11.50;75.60
15815;DHT22;8008;50.024;8.172;2024-03-08T13:44:14;11.60;76.90
15815;DHT22;8008;50.024;8.172;2024-03-08T13:46:44;11.70;76.10
15815;DHT22;8008;50.024;8.172;2024-03-08T13:49:18;11.80;75.20
15815;DHT22;8008;50.024;8.172;2024-03-08T13:51:46;11.80;74.70
15815;DHT22;8008;50.024;8.172;2024-03-08T13:54:17;11.80;75.10
15815;DHT22;8008;50.024;8.172;2024-03-08T13:56:45;11.80;75.20
15815;DHT22;8008;50.024;8.172;2024-03-08T13:59:13;11.80;74.60
15815;DHT22;8008;50.024;8.172;2024-03-08T14:01:40;11.80;74.90
15815;DHT22;8008;50.024;8.172;2024-03-08T14:04:12;11.90;73.90
15815;DHT22;8008;50.024;8.172;2024-03-08T14:06:43;11.90;74.50
15815;DHT22;8008;50.024;8.172;2024-03-08T14:09:12;11.90;74.50
15815;DHT22;8008;50.024;8.172;2024-03-08T14:11:44;12.00;74.60
15815;DHT22;8008;50.024;8.172;2024-03-08T14:14:13;12.10;74.80
15815;DHT22;8008;50.024;8.172;2024-03-08T14:16:40;12.20;73.90
15815;DHT22;8008;50.024;8.172;2024-03-08T14:19:10;12.30;73.30
15815;DHT22;8008;50.024;8.172;2024-03-08T14:21:38;12.40;73.20
15815;DHT22;8008;50.024;8.172;2024-03-08T14:24:08;12.90;74.10
15815;DHT22;8008;50.024;8.172;2024-03-08T14:26:37;14.10;74.10
15815;DHT22;8008;50.024;8.172;2024-03-08T14:29:06;16.00;72.50
15815;DHT22;8008;50.024;8.172;2024-03-08T14:31:37;17.60;68.10
15815;DHT22;8008;50.024;8.172;2024-03-08T14:34:05;19.10;66.80
15815;DHT22;8008;50.024;8.172;2024-03-08T14:36:34;20.20;62.50
15815;DHT22;8008;50.024;8.172;2024-03-08T14:39:02;20.80;60.30
15815;DHT22;8008;50.024;8.172;2024-03-08T14:41:30;21.50;59.00
15815;DHT22;8008;50.024;8.172;2024-03-08T14:43:58;22.30;57.30
15815;DHT22;8008;50.024;8.172;2024-03-08T14:46:27;22.50;55.00
15815;DHT22;8008;50.024;8.172;2024-03-08T14:48:56;22.70;53.70
15815;DHT22;8008;50.024;8.172;2024-03-08T14:51:24;22.60;53.70
15815;DHT22;8008;50.024;8.172;2024-03-08T14:53:53;22.50;53.10
15815;DHT22;8008;50.024;8.172;2024-03-08T14:56:22;22.60;52.20
15815;DHT22;8008;50.024;8.172;2024-03-08T14:58:53;22.50;51.90
15815;DHT22;8008;50.024;8.172;2024-03-08T15:01:24;23.10;52.20
15815;DHT22;8008;50.024;8.172;2024-03-08T15:03:57;23.40;50.70
15815;DHT22;8008;50.024;8.172;2024-03-08T15:06:29;22.80;50.00
15815;DHT22;8008;50.024;8.172;2024-03-08T15:08:58;22.80;49.90
15815;DHT22;8008;50.024;8.172;2024-03-08T15:11:26;22.60;50.00
15815;DHT22;8008;50.024;8.172;2024-03-08T15:13:54;22.30;49.80
15815;DHT22;8008;50.024;8.172;2024-03-08T15:16:24;22.40;50.00
15815;DHT22;8008;50.024;8.172;2024-03-08T15:18:52;22.50;49.90
15815;DHT22;8008;50.024;8.172;2024-03-08T15:21:22;22.70;49.50
15815;DHT22;8008;50.024;8.172;2024-03-08T15:23:52;22.90;49.50
15815;DHT22;8008;50.024;8.172;2024-03-08T15:26:21;22.60;49.20
15815;DHT22;8008;50.024;8.172;2024-03-08T15:28:49;21.40;48.90
15815;DHT22;8008;50.024;8.172;2024-03-08T15:31:19;19.90;49.60
15815;DHT22;8008;50.024;8.172;2024-03-08T15:33:48;18.40;50.40
15815;DHT22;8008;50.024;8.172;2024-03-08T15:36:18;17.20;51.50
15815;DHT22;8008;50.024;8.172;2024-03-08T15:38:49;16.40;52.60
15815;DHT22;8008;50.024;8.172;2024-03-08T15:41:19;16.00;53.30
15815;DHT22;8008;50.024;8.172;2024-03-08T15:43:48;15.60;53.60
15815;DHT22;8008;50.024;8.172;2024-03-08T15:46:16;15.10;53.80
15815;DHT22;8008;50.024;8.172;2024-03-08T15:48:49;14.60;54.30
15815;DHT22;8008;50.024;8.172;2024-03-08T15:51:18;14.20;54.90
15815;DHT22;8008;50.024;8.172;2024-03-08T15:53:46;14.00;56.60
15815;DHT22;8008;50.024;8.172;2024-03-08T15:56:21;13.80;56.30
15815;DHT22;8008;50.024;8.172;2024-03-08T15:58:49;13.70;56.60
15815;DHT22;8008;50.024;8.172;2024-03-08T16:01:18;13.50;56.90
15815;DHT22;8008;50.024;8.172;2024-03-08T16:03:47;13.30;57.10
15815;DHT22;8008;50.024;8.172;2024-03-08T16:06:17;13.10;58.10
15815;DHT22;8008;50.024;8.172;2024-03-08T16:08:48;12.90;57.80
15815;DHT22;8008;50.024;8.172;2024-03-08T16:11:16;12.80;57.90
15815;DHT22;8008;50.024;8.172;2024-03-08T16:16:18;12.70;58.60
15815;DHT22;8008;50.024;8.172;2024-03-08T16:18:47;12.60;58.40
15815;DHT22;8008;50.024;8.172;2024-03-08T16:21:15;12.50;58.60
15815;DHT22;8008;50.024;8.172;2024-03-08T16:23:43;12.50;59.00
15815;DHT22;8008;50.024;8.172;2024-03-08T16:26:13;12.40;59.00
15815;DHT22;8008;50.024;8.172;2024-03-08T16:28:42;12.30;59.00
15815;DHT22;8008;50.024;8.172;2024-03-08T16:31:10;12.30;59.10
15815;DHT22;8008;50.024;8.172;2024-03-08T16:33:42;12.30;58.90
15815;DHT22;8008;50.024;8.172;2024-03-08T16:36:11;12.20;59.20
15815;DHT22;8008;50.024;8.172;2024-03-08T16:38:41;12.10;59.30
15815;DHT22;8008;50.024;8.172;2024-03-08T16:41:12;12.00;59.50
15815;DHT22;8008;50.024;8.172;2024-03-08T16:43:41;12.00;59.80
15815;DHT22;8008;50.024;8.172;2024-03-08T16:46:10;12.00;60.00
15815;DHT22;8008;50.024;8.172;2024-03-08T16:48:41;11.90;60.20
15815;DHT22;8008;50.024;8.172;2024-03-08T16:51:09;11.90;60.30
15815;DHT22;8008;50.024;8.172;2024-03-08T16:53:38;11.80;60.90
15815;DHT22;8008;50.024;8.172;2024-03-08T16:56:08;11.80;60.50
15815;DHT22;8008;50.024;8.172;2024-03-08T16:58:39;11.80;60.80
15815;DHT22;8008;50.024;8.172;2024-03-08T17:01:09;11.70;60.70
15815;DHT22;8008;50.024;8.172;2024-03-08T17:03:37;11.60;61.20
15815;DHT22;8008;50.024;8.172;2024-03-08T17:06:23;11.50;61.20
15815;DHT22;8008;50.024;8.172;2024-03-08T17:08:52;11.50;61.80
15815;DHT22;8008;50.024;8.172;2024-03-08T17:11:20;11.40;61.80
15815;DHT22;8008;50.024;8.172;2024-03-08T17:13:49;11.40;62.20
15815;DHT22;8008;50.024;8.172;2024-03-08T17:16:17;11.30;62.60
15815;DHT22;8008;50.024;8.172;2024-03-08T17:18:49;11.30;62.70
15815;DHT22;8008;50.024;8.172;2024-03-08T17:21:17;11.30;63.00
15815;DHT22;8008;50.024;8.172;2024-03-08T17:23:46;11.20;63.30
15815;DHT22;8008;50.024;8.172;2024-03-08T17:26:14;11.10;63.60
15815;DHT22;8008;50.024;8.172;2024-03-08T17:28:44;11.10;63.90
15815;DHT22;8008;50.024;8.172;2024-03-08T17:31:14;11.10;64.20
15815;DHT22;8008;50.024;8.172;2024-03-08T17:33:42;11.00;64.30
15815;DHT22;8008;50.024;8.172;2024-03-08T17:36:11;11.00;64.50
15815;DHT22;8008;50.024;8.172;2024-03-08T17:38:42;10.90;64.60
15815;DHT22;8008;50.024;8.172;2024-03-08T17:41:17;10.90;65.60
15815;DHT22;8008;50.024;8.172;2024-03-08T17:43:50;10.90;65.20
15815;DHT22;8008;50.024;8.172;2024-03-08T17:46:18;10.80;65.50
15815;DHT22;8008;50.024;8.172;2024-03-08T17:48:47;10.70;65.70
15815;DHT22;8008;50.024;8.172;2024-03-08T17:51:15;10.70;65.80
15815;DHT22;8008;50.024;8.172;2024-03-08T17:53:44;10.60;65.90
15815;DHT22;8008;50.024;8.172;2024-03-08T17:56:13;10.60;66.10
15815;DHT22;8008;50.024;8.172;2024-03-08T17:58:43;10.60;66.30
15815;DHT22;8008;50.024;8.172;2024-03-08T18:01:11;10.50;66.50
15815;DHT22;8008;50.024;8.172;2024-03-08T18:03:40;10.50;66.40
15815;DHT22;8008;50.024;8.172;2024-03-08T18:06:08;10.50;66.70
15815;DHT22;8008;50.024;8.172;2024-03-08T18:08:36;10.40;67.00
15815;DHT22;8008;50.024;8.172;2024-03-08T18:11:04;10.40;67.40
15815;DHT22;8008;50.024;8.172;2024-03-08T18:13:33;10.40;67.60
15815;DHT22;8008;50.024;8.172;2024-03-08T18:16:03;10.30;67.50
15815;DHT22;8008;50.024;8.172;2024-03-08T18:18:34;10.30;67.60
15815;DHT22;8008;50.024;8.172;2024-03-08T18:21:02;10.20;68.00
15815;DHT22;8008;50.024;8.172;2024-03-08T18:23:32;10.20;68.00
15815;DHT22;8008;50.024;8.172;2024-03-08T18:26:00;10.20;68.80
15815;DHT22;8008;50.024;8.172;2024-03-08T18:28:30;10.10;68.00
15815;DHT22;8008;50.024;8.172;2024-03-08T18:30:58;10.10;68.10
15815;DHT22;8008;50.024;8.172;2024-03-08T18:33:27;10.10;68.30
15815;DHT22;8008;50.024;8.172;2024-03-08T18:35:59;10.00;68.10
15815;DHT22;8008;50.024;8.172;2024-03-08T18:38:27;10.00;68.30
15815;DHT22;8008;50.024;8.172;2024-03-08T18:40:55;9.90;69.20
15815;DHT22;8008;50.024;8.172;2024-03-08T18:43:24;9.90;69.50
15815;DHT22;8008;50.024;8.172;2024-03-08T18:45:54;9.90;69.50
15815;DHT22;8008;50.024;8.172;2024-03-08T18:48:24;9.90;69.30
15815;DHT22;8008;50.024;8.172;2024-03-08T18:50:54;9.90;69.30
15815;DHT22;8008;50.024;8.172;2024-03-08T18:53:26;9.80;69.10
15815;DHT22;8008;50.024;8.172;2024-03-08T18:55:55;9.80;69.10
15815;DHT22;8008;50.024;8.172;2024-03-08T18:58:23;9.80;69.20
15815;DHT22;8008;50.024;8.172;2024-03-08T19:01:04;9.80;69.10
15815;DHT22;8008;50.024;8.172;2024-03-08T19:03:33;9.80;68.70
15815;DHT22;8008;50.024;8.172;2024-03-08T19:06:03;9.80;68.90
15815;DHT22;8008;50.024;8.172;2024-03-08T19:08:31;9.70;68.90
15815;DHT22;8008;50.024;8.172;2024-03-08T19:10:59;9.70;69.30
15815;DHT22;8008;50.024;8.172;2024-03-08T19:13:27;9.70;69.30
15815;DHT22;8008;50.024;8.172;2024-03-08T19:15:56;9.70;69.20
15815;DHT22;8008;50.024;8.172;2024-03-08T19:18:23;9.70;69.60
15815;DHT22;8008;50.024;8.172;2024-03-08T19:20:53;9.70;69.70
15815;DHT22;8008;50.024;8.172;2024-03-08T19:23:24;9.70;69.40
15815;DHT22;8008;50.024;8.172;2024-03-08T19:25:57;9.70;69.40
15815;DHT22;8008;50.024;8.172;2024-03-08T19:28:25;9.60;69.30
15815;DHT22;8008;50.024;8.172;2024-03-08T19:30:54;9.60;69.50
15815;DHT22;8008;50.024;8.172;2024-03-08T19:33:22;9.60;69.90
15815;DHT22;8008;50.024;8.172;2024-03-08T19:35:50;9.60;69.70
15815;DHT22;8008;50.024;8.172;2024-03-08T19:38:18;9.60;69.80
15815;DHT22;8008;50.024;8.172;2024-03-08T19:40:48;9.60;70.10
15815;DHT22;8008;50.024;8.172;2024-03-08T19:43:18;9.60;70.30
15815;DHT22;8008;50.024;8.172;2024-03-08T19:45:46;9.50;70.50
15815;DHT22;8008;50.024;8.172;2024-03-08T19:48:16;9.50;70.70
15815;DHT22;8008;50.024;8.172;2024-03-08T19:50:45;9.50;70.80
15815;DHT22;8008;50.024;8.172;2024-03-08T19:53:15;9.50;71.30
15815;DHT22;8008;50.024;8.172;2024-03-08T19:55:45;9.40;71.30
15815;DHT22;8008;50.024;8.172;2024-03-08T19:58:19;9.30;71.70
15815;DHT22;8008;50.024;8.172;2024-03-08T20:00:48;9.30;71.70
15815;DHT22;8008;50.024;8.172;2024-03-08T20:03:17;9.20;71.90
15815;DHT22;8008;50.024;8.172;2024-03-08T20:05:50;9.20;72.20
15815;DHT22;8008;50.024;8.172;2024-03-08T20:08:20;9.10;72.30
15815;DHT22;8008;50.024;8.172;2024-03-08T20:10:49;9.10;72.50
15815;DHT22;8008;50.024;8.172;2024-03-08T20:13:20;9.10;73.00
15815;DHT22;8008;50.024;8.172;2024-03-08T20:15:48;9.00;73.70
15815;DHT22;8008;50.024;8.172;2024-03-08T20:18:21;8.90;73.80